Time;durP1;ratioP1;P1;durP2;ratioP2;P2;SDS_P1;SDS_P2;PMS_P1;PMS_P2;Temp;Humidity;BMP_temperature;BMP_pressure;BME280_temperature;BME280_humidity;BME280_pressure;Samples;Min_cycle;Max_cycle;Signal;HPM_P1;HPM_P2
2021/12/23 00:01:29;;;;;;;82.60;31.73;;;-1.70;99.90;;;;;;5008718;28;20033;-58
2021/12/23 00:03:54;;;;;;;88.30;31.67;;;-1.70;99.90;;;;;;5006797;28;20030;-55
2021/12/23 00:06:20;;;;;;;88.47;30.42;;;-1.70;99.90;;;;;;5007887;28;20041;-56
2021/12/23 00:08:46;;;;;;;91.47;32.47;;;-1.70;99.90;;;;;;5009315;28;20121;-54
2021/12/23 00:11:11;;;;;;;90.30;33.03;;;-1.70;99.90;;;;;;5009018;28;20076;-58
2021/12/23 00:13:37;;;;;;;98.95;32.97;;;-1.80;99.90;;;;;;5007704;28;20026;-55
2021/12/23 00:16:06;;;;;;;87.20;32.60;;;-1.70;99.90;;;;;;5003896;28;20026;-55
2021/12/23 00:23:59;;;;;;;90.05;31.20;;;-1.70;99.90;;;;;;4989188;28;20034;-54
2021/12/23 00:26:25;;;;;;;94.38;33.38;;;-1.70;99.90;;;;;;5007750;28;20112;-57
2021/12/23 00:28:52;;;;;;;95.05;32.63;;;-1.70;99.90;;;;;;5011871;28;20022;-56
2021/12/23 00:31:18;;;;;;;91.30;30.92;;;-1.70;99.90;;;;;;5013411;28;20042;-53
2021/12/23 00:33:44;;;;;;;86.45;31.38;;;-1.70;99.90;;;;;;5012118;28;20073;-55
2021/12/23 00:36:12;;;;;;;86.13;32.42;;;-1.70;99.90;;;;;;5013419;28;20030;-54
2021/12/23 00:38:44;;;;;;;93.97;32.35;;;-1.70;99.90;;;;;;5013363;28;20053;-56
2021/12/23 00:41:10;;;;;;;86.97;30.73;;;-1.70;99.90;;;;;;5018630;28;20045;-57
2021/12/23 00:43:36;;;;;;;94.00;32.22;;;-1.70;99.90;;;;;;5018600;28;20026;-57
2021/12/23 00:46:04;;;;;;;87.72;31.98;;;-1.60;99.90;;;;;;5015656;28;20026;-56
2021/12/23 00:48:30;;;;;;;79.03;27.63;;;-1.60;99.90;;;;;;5013100;28;20061;-54
2021/12/23 00:50:56;;;;;;;89.32;30.73;;;-1.70;99.90;;;;;;5011779;28;20026;-54
2021/12/23 00:53:23;;;;;;;90.80;32.15;;;-1.60;99.90;;;;;;5001011;28;20023;-54
2021/12/23 00:55:52;;;;;;;83.25;32.25;;;-1.60;99.90;;;;;;4996721;28;20380;-55
2021/12/23 00:58:19;;;;;;;93.70;31.90;;;-1.60;99.90;;;;;;5012571;28;20022;-55
2021/12/23 01:00:46;;;;;;;91.10;32.03;;;-1.60;99.90;;;;;;5012612;28;20026;-53
2021/12/23 01:03:12;;;;;;;89.03;31.58;;;-1.70;99.90;;;;;;5011988;28;20443;-53
2021/12/23 01:05:38;;;;;;;89.63;29.58;;;-1.70;99.90;;;;;;5011631;28;20336;-55
2021/12/23 01:08:04;;;;;;;90.22;30.42;;;-1.70;99.90;;;;;;5011990;28;20049;-56
2021/12/23 01:10:31;;;;;;;87.80;31.05;;;-1.70;99.90;;;;;;5011552;28;20119;-54
2021/12/23 01:13:02;;;;;;;89.57;31.25;;;-1.70;99.90;;;;;;5011692;28;20022;-53
2021/12/23 01:18:05;;;;;;;76.00;27.60;;;-1.70;99.90;;;;;;5012454;28;20120;-54
2021/12/23 01:20:35;;;;;;;76.97;30.10;;;-1.60;99.90;;;;;;5010156;28;20034;-57
2021/12/23 01:23:10;;;;;;;81.30;30.13;;;-1.60;99.90;;;;;;5011327;28;20026;-53
2021/12/23 01:25:38;;;;;;;72.10;27.63;;;-1.60;99.90;;;;;;5011600;28;20627;-56
2021/12/23 01:28:06;;;;;;;76.03;27.67;;;-1.60;99.90;;;;;;5012227;28;20073;-54
2021/12/23 01:30:37;;;;;;;74.13;28.73;;;-1.60;99.90;;;;;;5011180;28;20033;-54
2021/12/23 01:33:04;;;;;;;76.93;27.37;;;-1.60;99.90;;;;;;5011253;28;20088;-55
2021/12/23 01:35:30;;;;;;;77.95;29.50;;;-1.70;99.90;;;;;;5011661;28;20041;-55
2021/12/23 01:37:55;;;;;;;78.05;28.15;;;-1.60;99.90;;;;;;5012008;28;20060;-56
2021/12/23 01:40:26;;;;;;;75.68;27.48;;;-1.60;99.90;;;;;;5010193;28;20044;-55
2021/12/23 01:42:52;;;;;;;71.45;28.35;;;-1.60;99.90;;;;;;5010967;28;20041;-53
2021/12/23 01:45:21;;;;;;;77.43;27.27;;;-1.60;99.90;;;;;;5011965;28;20364;-56
2021/12/23 01:47:48;;;;;;;77.63;27.40;;;-1.60;99.90;;;;;;5011512;28;20340;-56
2021/12/23 01:50:17;;;;;;;73.75;26.55;;;-1.60;99.90;;;;;;5004551;28;20390;-56
2021/12/23 01:52:43;;;;;;;75.65;29.05;;;-1.60;99.90;;;;;;4990708;28;20026;-56
2021/12/23 01:55:10;;;;;;;73.45;28.60;;;-1.60;99.90;;;;;;4992615;28;20515;-53
2021/12/23 01:57:36;;;;;;;77.82;27.88;;;-1.50;99.90;;;;;;4991177;28;20026;-55
2021/12/23 02:00:07;;;;;;;72.30;28.45;;;-1.50;99.90;;;;;;4992195;28;20100;-57
2021/12/23 02:02:33;;;;;;;70.85;28.23;;;-1.50;99.90;;;;;;4993842;28;20030;-53
2021/12/23 02:04:58;;;;;;;70.18;27.08;;;-1.50;99.90;;;;;;5011670;28;20388;-56
2021/12/23 02:07:24;;;;;;;66.00;26.88;;;-1.40;99.90;;;;;;5009681;28;20038;-54
2021/12/23 02:09:49;;;;;;;69.25;26.33;;;-1.40;99.90;;;;;;5011601;28;20121;-54
2021/12/23 02:12:16;;;;;;;72.75;27.30;;;-1.40;99.90;;;;;;5010818;28;20018;-55
2021/12/23 02:14:42;;;;;;;67.22;26.70;;;-1.40;99.90;;;;;;5010450;28;20488;-53
2021/12/23 02:17:07;;;;;;;71.10;26.25;;;-1.40;99.90;;;;;;5011306;28;20092;-55
2021/12/23 02:19:33;;;;;;;68.50;26.70;;;-1.40;99.90;;;;;;5010076;28;20022;-55
2021/12/23 02:21:59;;;;;;;65.03;26.23;;;-1.50;99.90;;;;;;5006590;28;20052;-57
2021/12/23 02:24:25;;;;;;;71.03;27.13;;;-1.40;99.90;;;;;;4997525;28;20408;-54
2021/12/23 02:26:51;;;;;;;76.47;27.05;;;-1.40;99.90;;;;;;4991578;28;20038;-53
2021/12/23 02:29:17;;;;;;;66.45;27.42;;;-1.50;99.90;;;;;;5010545;28;20053;-53
2021/12/23 02:31:51;;;;;;;64.35;25.75;;;-1.40;99.90;;;;;;5009399;28;20034;-59
2021/12/23 02:34:18;;;;;;;70.30;26.08;;;-1.40;99.90;;;;;;5010865;28;20030;-53
2021/12/23 02:36:51;;;;;;;62.78;25.77;;;-1.40;99.90;;;;;;5011351;28;20492;-53
2021/12/23 02:39:17;;;;;;;69.07;27.38;;;-1.40;99.90;;;;;;5009572;28;20032;-54
2021/12/23 02:41:43;;;;;;;61.30;25.50;;;-1.40;99.90;;;;;;5009500;28;20112;-60
2021/12/23 02:44:09;;;;;;;71.22;25.58;;;-1.30;99.90;;;;;;5010683;28;20116;-54
2021/12/23 02:46:35;;;;;;;61.17;24.35;;;-1.30;99.90;;;;;;5010219;28;20128;-55
2021/12/23 02:49:01;;;;;;;60.05;25.27;;;-1.30;99.90;;;;;;5009667;28;20026;-54
2021/12/23 02:51:27;;;;;;;68.40;25.25;;;-1.30;99.90;;;;;;5009757;28;20505;-54
2021/12/23 02:53:53;;;;;;;62.50;26.15;;;-1.30;99.90;;;;;;5010603;28;20041;-57
2021/12/23 02:56:18;;;;;;;60.72;24.25;;;-1.30;99.90;;;;;;5011926;28;20411;-60
2021/12/23 02:58:45;;;;;;;62.50;24.10;;;-1.30;99.90;;;;;;5011309;28;20034;-55
2021/12/23 03:01:12;;;;;;;62.28;25.77;;;-1.30;99.90;;;;;;5013077;28;20080;-55
2021/12/23 03:03:38;;;;;;;61.63;24.67;;;-1.30;99.90;;;;;;5011092;28;20040;-56
2021/12/23 03:06:04;;;;;;;68.90;25.35;;;-1.30;99.90;;;;;;5013678;28;20042;-56
2021/12/23 03:08:35;;;;;;;57.38;24.33;;;-1.30;99.90;;;;;;5010521;28;20030;-57
2021/12/23 03:11:01;;;;;;;57.95;23.33;;;-1.30;99.90;;;;;;5011231;28;20053;-55
2021/12/23 03:13:27;;;;;;;59.95;24.25;;;-1.30;99.90;;;;;;5009308;28;20025;-56
2021/12/23 03:15:53;;;;;;;63.25;25.05;;;-1.30;99.90;;;;;;5010540;28;20467;-56
2021/12/23 03:18:18;;;;;;;58.42;24.60;;;-1.30;99.90;;;;;;5008478;28;20048;-59
2021/12/23 03:20:44;;;;;;;59.88;25.15;;;-1.20;99.90;;;;;;5010718;28;20049;-53
2021/12/23 03:23:10;;;;;;;60.85;23.77;;;-1.20;99.90;;;;;;5008189;28;20197;-56
2021/12/23 03:25:36;;;;;;;61.97;25.35;;;-1.20;99.90;;;;;;5009979;28;20092;-54
2021/12/23 03:28:01;;;;;;;70.30;26.08;;;-1.20;99.90;;;;;;5010751;28;20030;-56
2021/12/23 03:30:27;;;;;;;63.25;24.92;;;-1.20;99.90;;;;;;5009589;28;20477;-55
2021/12/23 03:32:53;;;;;;;64.90;25.10;;;-1.20;99.90;;;;;;5009438;28;20125;-54
2021/12/23 03:35:19;;;;;;;60.90;25.92;;;-1.20;99.90;;;;;;5009162;28;20030;-60
2021/12/23 03:37:45;;;;;;;67.80;25.75;;;-1.20;99.90;;;;;;5009947;28;20040;-58
2021/12/23 03:40:11;;;;;;;61.38;23.75;;;-1.20;99.90;;;;;;5008727;28;20037;-53
2021/12/23 03:42:37;;;;;;;61.50;24.50;;;-1.20;99.90;;;;;;5008352;28;20058;-54
2021/12/23 03:45:05;;;;;;;62.45;25.13;;;-1.20;99.90;;;;;;5010467;28;20025;-54
2021/12/23 03:47:31;;;;;;;58.85;25.73;;;-1.20;99.90;;;;;;5008882;28;20345;-53
2021/12/23 03:49:56;;;;;;;65.15;26.05;;;-1.20;99.90;;;;;;5009400;28;20045;-54
2021/12/23 03:52:22;;;;;;;61.55;25.35;;;-1.20;99.90;;;;;;5008390;28;20516;-55
2021/12/23 03:54:48;;;;;;;60.78;24.85;;;-1.30;99.90;;;;;;5009884;28;20021;-58
2021/12/23 03:57:13;;;;;;;62.28;24.38;;;-1.20;99.90;;;;;;5009929;28;20026;-55
2021/12/23 03:59:39;;;;;;;62.63;25.25;;;-1.30;99.90;;;;;;5009640;28;20029;-57
2021/12/23 04:02:05;;;;;;;57.47;24.45;;;-1.30;99.90;;;;;;5008994;28;20034;-54
2021/12/23 04:04:31;;;;;;;65.13;25.42;;;-1.30;99.90;;;;;;5009330;28;20381;-56
2021/12/23 04:06:57;;;;;;;56.97;24.80;;;-1.20;99.90;;;;;;5010181;28;20036;-54
2021/12/23 04:09:22;;;;;;;61.85;23.70;;;-1.20;99.90;;;;;;5011575;28;20127;-55
2021/12/23 04:11:48;;;;;;;63.70;24.42;;;-1.30;99.90;;;;;;5011559;28;20121;-55
2021/12/23 04:14:14;;;;;;;61.17;23.70;;;-1.20;99.90;;;;;;5009699;28;20427;-58
2021/12/23 04:16:40;;;;;;;63.50;24.27;;;-1.30;99.90;;;;;;5011195;28;20109;-57
2021/12/23 04:19:08;;;;;;;58.42;23.35;;;-1.30;99.90;;;;;;5012589;28;20022;-56
2021/12/23 04:21:35;;;;;;;57.13;23.20;;;-1.20;99.90;;;;;;5011714;28;20109;-53
2021/12/23 04:24:01;;;;;;;63.25;24.67;;;-1.30;99.90;;;;;;5010912;28;20030;-58
2021/12/23 04:26:26;;;;;;;61.13;25.77;;;-1.20;99.90;;;;;;5009990;28;20053;-58
2021/12/23 04:28:52;;;;;;;59.30;24.45;;;-1.20;99.90;;;;;;5008768;28;20033;-57
2021/12/23 04:31:22;;;;;;;61.28;22.73;;;-1.10;99.90;;;;;;5010514;28;20080;-54
2021/12/23 04:33:50;;;;;;;57.05;23.83;;;-1.20;99.90;;;;;;5009709;28;20034;-56
2021/12/23 04:36:16;;;;;;;60.83;24.50;;;-1.10;99.90;;;;;;5010834;28;20037;-55
2021/12/23 04:38:43;;;;;;;50.80;23.70;;;-1.10;99.90;;;;;;5008763;28;20108;-56
2021/12/23 04:41:09;;;;;;;55.40;22.90;;;-1.00;99.90;;;;;;5010567;28;20030;-58
2021/12/23 04:43:35;;;;;;;56.65;23.52;;;-1.10;99.90;;;;;;5007157;28;20024;-56
2021/12/23 04:46:01;;;;;;;54.67;23.02;;;-1.10;99.90;;;;;;5010302;28;20046;-58
2021/12/23 04:48:27;;;;;;;53.00;23.15;;;-1.00;99.90;;;;;;5009151;28;20064;-56
2021/12/23 04:50:52;;;;;;;61.35;24.27;;;-1.10;99.90;;;;;;5009186;28;20030;-55
2021/12/23 04:53:18;;;;;;;57.22;22.40;;;-1.10;99.90;;;;;;5008691;28;20532;-54
2021/12/23 04:55:44;;;;;;;51.30;21.90;;;-1.10;99.90;;;;;;5009286;28;20559;-56
2021/12/23 04:58:10;;;;;;;56.53;24.05;;;-1.10;99.90;;;;;;5009660;28;20037;-55
2021/12/23 05:00:35;;;;;;;53.55;23.42;;;-1.10;99.90;;;;;;5008562;28;20080;-56
2021/12/23 05:03:01;;;;;;;56.38;23.58;;;-1.10;99.90;;;;;;5008573;28;20036;-56
2021/12/23 05:05:27;;;;;;;59.55;24.23;;;-1.10;99.90;;;;;;5007190;28;20030;-57
2021/12/23 05:07:53;;;;;;;59.35;22.92;;;-1.10;99.90;;;;;;5007817;28;20451;-57
2021/12/23 05:10:19;;;;;;;50.65;22.00;;;-1.00;99.90;;;;;;5008230;28;20156;-60
2021/12/23 05:12:46;;;;;;;55.92;23.40;;;-1.00;99.90;;;;;;5008769;28;20026;-54
2021/12/23 05:15:15;;;;;;;55.83;22.05;;;-1.00;99.90;;;;;;5012879;28;20022;-56
2021/12/23 05:17:42;;;;;;;57.67;24.50;;;-1.00;99.90;;;;;;5011432;28;20400;-54
2021/12/23 05:20:10;;;;;;;55.17;23.60;;;-1.00;99.90;;;;;;5011154;28;20034;-57
2021/12/23 05:22:36;;;;;;;59.88;24.65;;;-1.00;99.90;;;;;;5009491;28;20100;-57
2021/12/23 05:25:03;;;;;;;56.67;23.95;;;-0.90;99.90;;;;;;5012521;28;20428;-57
2021/12/23 05:27:29;;;;;;;59.38;25.08;;;-1.00;99.90;;;;;;5011676;28;20467;-55
2021/12/23 05:29:54;;;;;;;60.63;24.92;;;-0.90;99.90;;;;;;5012574;28;20034;-56
2021/12/23 05:32:20;;;;;;;61.83;24.60;;;-1.00;99.90;;;;;;5010964;28;20583;-57
2021/12/23 05:34:46;;;;;;;50.67;23.00;;;-0.90;99.90;;;;;;5012232;28;20109;-57
2021/12/23 05:37:12;;;;;;;54.88;23.48;;;-0.90;99.90;;;;;;5012011;28;20030;-55
2021/12/23 05:39:37;;;;;;;53.28;22.85;;;-0.80;99.90;;;;;;5011763;28;20483;-57
2021/12/23 05:42:04;;;;;;;54.42;23.60;;;-0.90;99.90;;;;;;5011382;28;20499;-58
2021/12/23 05:44:30;;;;;;;58.25;23.92;;;-0.80;99.90;;;;;;5011102;28;20033;-56
2021/12/23 05:46:56;;;;;;;56.83;23.58;;;-0.80;99.90;;;;;;5011901;28;20121;-58
2021/12/23 05:49:22;;;;;;;50.42;22.15;;;-0.90;99.90;;;;;;5011068;28;20435;-57
2021/12/23 05:51:48;;;;;;;63.20;25.20;;;-0.80;99.90;;;;;;5011236;28;20029;-57
2021/12/23 05:54:13;;;;;;;57.50;23.90;;;-0.90;99.90;;;;;;5011989;28;20026;-54
2021/12/23 05:56:39;;;;;;;61.80;24.38;;;-0.90;99.90;;;;;;5011076;28;20121;-56
2021/12/23 05:59:05;;;;;;;61.17;24.83;;;-1.00;99.90;;;;;;4992099;28;20029;-54
2021/12/23 06:01:32;;;;;;;55.38;24.88;;;-1.00;99.90;;;;;;4991351;28;20045;-56
2021/12/23 06:03:57;;;;;;;60.38;25.20;;;-1.10;99.90;;;;;;4991435;28;20029;-53
2021/12/23 06:06:23;;;;;;;59.72;23.05;;;-1.00;99.90;;;;;;4991646;28;20030;-55
2021/12/23 06:08:49;;;;;;;66.53;25.27;;;-1.10;99.90;;;;;;4992222;28;20023;-57
2021/12/23 06:11:15;;;;;;;61.50;24.52;;;-1.00;99.90;;;;;;4992211;28;20432;-55
2021/12/23 06:13:41;;;;;;;58.80;24.75;;;-1.10;99.90;;;;;;4990638;28;20057;-54
2021/12/23 06:16:06;;;;;;;60.60;24.92;;;-1.10;99.90;;;;;;4996110;28;20057;-55
2021/12/23 06:18:32;;;;;;;56.67;24.15;;;-1.10;99.90;;;;;;5010695;28;20034;-54
2021/12/23 06:20:58;;;;;;;61.60;24.58;;;-0.90;99.90;;;;;;5010012;28;20049;-54
2021/12/23 06:23:25;;;;;;;63.15;25.55;;;-1.00;99.90;;;;;;5009943;28;20391;-56
2021/12/23 06:25:50;;;;;;;60.67;26.60;;;-1.00;99.90;;;;;;5010390;28;20029;-55
2021/12/23 06:28:16;;;;;;;64.30;24.77;;;-1.00;99.90;;;;;;5010332;28;20141;-57
2021/12/23 06:30:42;;;;;;;61.63;23.95;;;-1.00;99.90;;;;;;5009053;28;20030;-57
2021/12/23 06:33:07;;;;;;;60.58;23.42;;;-1.00;99.90;;;;;;5010128;28;20136;-57
2021/12/23 06:35:33;;;;;;;57.63;25.55;;;-1.10;99.90;;;;;;5010531;28;20097;-56
2021/12/23 06:38:07;;;;;;;60.85;25.70;;;-1.00;99.90;;;;;;5010841;28;20045;-55
2021/12/23 06:40:33;;;;;;;56.80;24.33;;;-1.00;99.90;;;;;;5010460;28;20029;-53
2021/12/23 06:42:58;;;;;;;59.70;25.50;;;-1.10;99.90;;;;;;5010152;28;20052;-55
2021/12/23 06:45:24;;;;;;;59.38;24.42;;;-1.10;99.90;;;;;;5010424;28;20044;-53
2021/12/23 06:47:50;;;;;;;64.10;24.63;;;-1.10;99.90;;;;;;5010372;28;20038;-54
2021/12/23 06:50:17;;;;;;;58.92;25.52;;;-1.10;99.90;;;;;;5010932;28;20030;-56
2021/12/23 06:52:43;;;;;;;60.25;25.73;;;-1.10;99.90;;;;;;5009507;28;20050;-57
2021/12/23 06:55:12;;;;;;;58.78;25.50;;;-1.10;99.90;;;;;;5010921;28;20433;-54
2021/12/23 06:57:39;;;;;;;62.83;26.27;;;-1.10;99.90;;;;;;5009900;28;20122;-57
2021/12/23 07:00:07;;;;;;;67.82;27.25;;;-1.10;99.90;;;;;;5010410;28;20038;-58
2021/12/23 07:02:37;;;;;;;67.75;27.52;;;-1.00;99.90;;;;;;5008787;28;20056;-54
2021/12/23 07:05:02;;;;;;;64.00;24.30;;;-1.00;99.90;;;;;;5011020;28;20038;-57
2021/12/23 07:07:30;;;;;;;66.93;26.88;;;-1.10;99.90;;;;;;5009826;28;20042;-56
2021/12/23 07:09:56;;;;;;;61.03;24.67;;;-1.00;99.90;;;;;;5010473;28;20026;-57
2021/12/23 07:12:22;;;;;;;64.43;25.70;;;-1.00;99.90;;;;;;5008984;28;20033;-56
2021/12/23 07:14:48;;;;;;;60.22;26.20;;;-1.00;99.90;;;;;;5010001;28;20120;-58
2021/12/23 07:17:14;;;;;;;60.92;26.00;;;-1.00;99.90;;;;;;5010437;28;20148;-55
2021/12/23 07:19:40;;;;;;;59.97;25.23;;;-1.00;99.90;;;;;;5009375;28;20053;-53
2021/12/23 07:22:05;;;;;;;60.25;25.05;;;-0.90;99.90;;;;;;5009402;28;20041;-57
2021/12/23 07:24:31;;;;;;;61.33;26.65;;;-0.90;99.90;;;;;;5009410;28;20443;-56
2021/12/23 07:26:57;;;;;;;61.38;25.42;;;-0.90;99.90;;;;;;5010230;28;20114;-56
2021/12/23 07:29:23;;;;;;;54.42;23.40;;;-1.00;99.90;;;;;;5009221;28;20026;-54
2021/12/23 07:31:48;;;;;;;55.42;24.45;;;-0.90;99.90;;;;;;5007705;28;20056;-56
2021/12/23 07:34:14;;;;;;;60.95;25.60;;;-0.90;99.90;;;;;;5008981;28;20562;-54
2021/12/23 07:36:41;;;;;;;56.10;25.17;;;-0.90;99.90;;;;;;5009349;28;20089;-56
2021/12/23 07:39:07;;;;;;;61.30;25.40;;;-0.80;99.90;;;;;;5009421;28;20095;-55
2021/12/23 07:41:33;;;;;;;62.80;26.02;;;-0.80;99.90;;;;;;5008745;28;20033;-57
2021/12/23 07:44:03;;;;;;;59.05;25.52;;;-1.00;99.90;;;;;;4995700;28;20030;-55
2021/12/23 07:46:32;;;;;;;58.78;25.80;;;-0.80;99.90;;;;;;4990007;28;20117;-57
2021/12/23 07:48:58;;;;;;;56.03;23.92;;;-0.70;99.90;;;;;;5006601;28;20037;-57
2021/12/23 07:51:24;;;;;;;50.22;23.27;;;-0.70;99.90;;;;;;5009305;28;20376;-57
2021/12/23 07:53:51;;;;;;;57.20;24.60;;;-0.70;99.90;;;;;;5009007;28;20049;-57
2021/12/23 07:56:17;;;;;;;59.15;24.75;;;-0.60;99.90;;;;;;5009893;28;20022;-58
2021/12/23 07:58:42;;;;;;;54.53;23.40;;;-0.60;99.90;;;;;;5009445;28;20113;-56
2021/12/23 08:01:08;;;;;;;59.00;24.83;;;-0.60;99.90;;;;;;5009421;28;20552;-57
2021/12/23 08:03:34;;;;;;;54.08;24.70;;;-0.60;99.90;;;;;;5008495;28;20274;-56
2021/12/23 08:06:00;;;;;;;54.97;23.67;;;-0.70;99.90;;;;;;5009833;28;20026;-58
2021/12/23 08:08:25;;;;;;;57.60;24.25;;;-0.60;99.90;;;;;;5008672;28;20395;-54
2021/12/23 08:10:51;;;;;;;53.70;22.02;;;-0.50;99.90;;;;;;5009960;28;20034;-53
2021/12/23 08:13:17;;;;;;;59.83;23.35;;;-0.50;99.90;;;;;;5008750;28;20025;-55
2021/12/23 08:15:43;;;;;;;61.50;23.73;;;-0.50;99.90;;;;;;5008940;28;20030;-57
2021/12/23 08:18:08;;;;;;;51.70;23.20;;;-0.40;99.90;;;;;;5009756;28;20499;-56
2021/12/23 08:20:34;;;;;;;52.30;24.65;;;-0.40;99.90;;;;;;5008689;28;20120;-56
2021/12/23 08:23:01;;;;;;;56.00;23.45;;;-0.30;99.90;;;;;;5008700;28;20041;-58
2021/12/23 08:25:27;;;;;;;56.33;24.38;;;-0.30;99.90;;;;;;5008760;28;20511;-54
2021/12/23 08:27:53;;;;;;;56.55;24.42;;;-0.30;99.90;;;;;;5009193;28;20448;-54
2021/12/23 08:30:20;;;;;;;57.15;24.65;;;-0.30;99.90;;;;;;5009141;28;20037;-59
2021/12/23 08:32:47;;;;;;;66.35;24.55;;;-0.30;99.90;;;;;;5008631;28;20423;-58
2021/12/23 08:35:14;;;;;;;56.17;23.85;;;-0.20;99.90;;;;;;5009218;28;20030;-58
2021/12/23 08:37:45;;;;;;;58.08;23.67;;;-0.20;99.90;;;;;;5007775;28;20037;-57
2021/12/23 08:40:14;;;;;;;53.63;23.40;;;-0.20;99.90;;;;;;5008100;28;20030;-56
2021/12/23 08:42:40;;;;;;;56.50;24.42;;;-0.20;99.90;;;;;;5007795;28;20412;-55
2021/12/23 08:45:07;;;;;;;51.72;23.77;;;-0.20;99.90;;;;;;5009203;28;20034;-54
2021/12/23 08:47:34;;;;;;;52.83;24.98;;;-0.10;99.90;;;;;;5008473;28;20121;-57
2021/12/23 08:50:00;;;;;;;50.92;24.15;;;-0.10;99.90;;;;;;5013182;28;20014;-58
2021/12/23 08:52:26;;;;;;;54.08;24.08;;;-0.10;99.90;;;;;;5011174;28;20452;-56
2021/12/23 08:54:52;;;;;;;47.88;22.70;;;0.00;99.90;;;;;;5013393;28;20033;-58
2021/12/23 08:57:18;;;;;;;57.90;24.80;;;0.10;99.90;;;;;;5013105;28;20538;-58
2021/12/23 08:59:43;;;;;;;48.83;24.25;;;0.10;99.90;;;;;;5011176;28;20030;-56
2021/12/23 09:02:09;;;;;;;52.05;23.35;;;0.10;99.90;;;;;;5010130;28;20125;-58
2021/12/23 09:04:35;;;;;;;51.83;24.38;;;0.20;99.90;;;;;;5011098;28;20037;-53
2021/12/23 09:07:02;;;;;;;54.55;23.67;;;0.20;99.90;;;;;;5011457;28;20474;-55
2021/12/23 09:09:31;;;;;;;50.42;24.10;;;0.20;99.90;;;;;;5012023;28;20107;-58
2021/12/23 09:11:57;;;;;;;55.03;25.05;;;0.20;99.90;;;;;;5011984;28;20030;-57
2021/12/23 09:14:22;;;;;;;51.55;24.25;;;0.20;99.90;;;;;;5011487;28;20028;-56
2021/12/23 09:16:48;;;;;;;49.88;23.38;;;0.30;99.90;;;;;;4997098;28;20034;-56
2021/12/23 09:19:14;;;;;;;57.13;25.05;;;0.30;99.90;;;;;;4994222;28;20037;-59
2021/12/23 09:21:40;;;;;;;47.53;23.15;;;0.30;99.90;;;;;;5015138;28;20433;-59
2021/12/23 09:24:07;;;;;;;53.00;23.83;;;0.30;99.90;;;;;;5011113;28;20106;-56
2021/12/23 09:26:41;;;;;;;54.42;24.63;;;0.30;99.90;;;;;;5009008;28;20026;-56
2021/12/23 09:32:38;;;;;;;50.40;23.02;;;0.30;99.90;;;;;;5011949;28;20030;-52
2021/12/23 09:34:42;;;;;;;51.28;22.88;;;0.40;99.90;;;;;;4986019;28;20805;-59
2021/12/23 09:37:08;;;;;;;47.92;22.08;;;0.40;99.90;;;;;;5010118;28;20030;-57
2021/12/23 09:39:34;;;;;;;50.25;24.30;;;0.40;99.90;;;;;;5011384;28;20400;-55
2021/12/23 09:42:02;;;;;;;55.75;25.20;;;0.40;99.90;;;;;;5011227;28;20030;-58
2021/12/23 09:44:30;;;;;;;58.95;25.33;;;0.40;99.90;;;;;;5010009;28;20084;-57
2021/12/23 09:47:00;;;;;;;55.35;24.15;;;0.40;99.90;;;;;;5010662;28;20044;-59
2021/12/23 09:49:27;;;;;;;51.13;23.77;;;0.50;99.90;;;;;;5010625;28;20037;-56
2021/12/23 09:51:55;;;;;;;55.10;23.60;;;0.50;99.90;;;;;;5007913;28;20038;-56
2021/12/23 09:54:21;;;;;;;48.47;22.83;;;0.50;99.90;;;;;;5007965;28;20057;-57
2021/12/23 09:56:46;;;;;;;53.97;24.63;;;0.40;99.90;;;;;;5011439;28;20049;-56
2021/12/23 09:59:13;;;;;;;52.83;24.65;;;0.40;99.90;;;;;;5009613;28;20046;-53
2021/12/23 10:01:39;;;;;;;57.25;24.48;;;0.40;99.90;;;;;;5009514;28;20111;-54
2021/12/23 10:04:05;;;;;;;52.97;24.92;;;0.40;99.90;;;;;;5010290;28;20069;-59
2021/12/23 10:06:32;;;;;;;51.60;23.55;;;0.40;99.90;;;;;;5009495;28;20030;-59
2021/12/23 10:08:58;;;;;;;53.85;24.65;;;0.40;99.90;;;;;;5011053;28;20042;-59
2021/12/23 10:31:08;;;;;;;53.65;24.77;;;0.50;99.90;;;;;;5002080;28;20036;-57
2021/12/23 10:33:47;;;;;;;47.65;23.80;;;0.50;99.90;;;;;;5007570;28;20428;-58
2021/12/23 10:38:47;;;;;;;52.28;24.02;;;0.60;99.90;;;;;;4990977;28;20088;-57
2021/12/23 10:41:20;;;;;;;49.15;22.35;;;0.50;99.90;;;;;;5007629;28;20549;-57
2021/12/23 10:43:54;;;;;;;52.55;23.10;;;0.50;99.90;;;;;;5010729;28;20113;-59
2021/12/23 10:46:25;;;;;;;48.45;22.80;;;0.40;99.90;;;;;;4991172;28;20030;-57
2021/12/23 10:48:55;;;;;;;42.25;18.95;;;0.40;99.90;;;;;;5010913;28;20038;-56
2021/12/23 10:51:21;;;;;;;52.22;24.45;;;0.40;99.90;;;;;;5008372;28;20033;-54
2021/12/23 10:59:26;;;;;;;53.08;25.13;;;0.50;99.90;;;;;;5011294;28;20092;-53
2021/12/23 11:02:14;;;;;;;54.47;25.30;;;0.50;99.90;;;;;;5005116;28;20041;-60
2021/12/23 11:05:09;;;;;;;63.92;26.33;;;0.60;99.90;;;;;;5002946;28;20021;-60
2021/12/23 11:07:53;;;;;;;67.95;28.02;;;0.70;99.90;;;;;;4990454;28;20026;-56
2021/12/23 11:40:56;;;;;;;50.42;22.88;;;1.20;99.90;;;;;;5009053;28;20044;-58
2021/12/23 11:43:32;;;;;;;50.67;24.35;;;1.20;99.90;;;;;;5007087;28;20030;-59
2021/12/23 11:45:59;;;;;;;47.97;23.55;;;1.20;99.90;;;;;;5011315;28;20066;-58
2021/12/23 11:48:26;;;;;;;50.63;24.00;;;1.30;99.90;;;;;;5010913;28;20116;-57
2021/12/23 11:51:08;;;;;;;45.45;24.10;;;1.30;99.90;;;;;;5011597;28;20108;-58
2021/12/23 11:53:35;;;;;;;50.55;25.08;;;1.30;99.90;;;;;;5010219;28;20058;-58
2021/12/23 11:56:06;;;;;;;46.47;23.33;;;1.40;99.90;;;;;;5010742;28;20096;-58
2021/12/23 11:58:32;;;;;;;46.97;23.63;;;1.50;99.90;;;;;;5021318;28;20034;-59
2021/12/23 12:01:13;;;;;;;50.80;23.30;;;1.40;99.90;;;;;;5030567;28;20091;-57
2021/12/23 12:04:03;;;;;;;50.20;23.50;;;1.50;99.90;;;;;;5015201;28;20422;-56
2021/12/23 12:06:48;;;;;;;46.28;22.65;;;1.50;99.90;;;;;;4990572;28;20128;-52
2021/12/23 12:09:19;;;;;;;46.92;22.10;;;1.60;99.90;;;;;;4989377;28;20113;-59
2021/12/23 12:12:04;;;;;;;43.50;21.02;;;1.50;99.90;;;;;;4990201;28;20030;-58
2021/12/23 12:14:38;;;;;;;52.30;22.83;;;1.60;99.90;;;;;;5003406;28;20097;-59
2021/12/23 12:17:23;;;;;;;46.55;22.13;;;1.50;99.90;;;;;;4999965;28;20345;-58
2021/12/23 12:19:59;;;;;;;46.33;21.95;;;1.60;99.90;;;;;;5010567;28;20101;-54
2021/12/23 12:22:52;;;;;;;46.58;22.73;;;1.40;99.90;;;;;;5009305;28;20022;-55
2021/12/23 12:25:24;;;;;;;49.03;22.25;;;1.60;99.90;;;;;;5012843;28;20048;-58
2021/12/23 12:27:56;;;;;;;49.40;23.33;;;1.60;99.90;;;;;;5013450;28;20049;-53
2021/12/23 12:30:38;;;;;;;44.80;22.13;;;1.60;99.90;;;;;;5011774;28;20021;-59
2021/12/23 12:33:05;;;;;;;54.45;23.60;;;1.60;99.90;;;;;;5012251;28;20442;-60
2021/12/23 12:35:31;;;;;;;48.53;23.85;;;1.60;99.90;;;;;;5013603;28;20480;-60
2021/12/23 12:38:12;;;;;;;46.80;23.80;;;1.60;99.90;;;;;;5014283;28;20109;-58
2021/12/23 12:41:30;;;;;;;46.15;23.40;;;1.60;99.90;;;;;;5013963;28;20026;-57
2021/12/23 12:44:07;;;;;;;49.13;23.38;;;1.50;99.90;;;;;;4979710;28;20034;-56
2021/12/23 12:46:43;;;;;;;47.67;22.52;;;1.50;99.90;;;;;;5014084;28;20037;-56
2021/12/23 12:49:25;;;;;;;46.58;23.02;;;1.60;99.90;;;;;;5018813;28;20025;-57
2021/12/23 12:51:54;;;;;;;51.00;24.05;;;1.50;99.90;;;;;;5013321;28;20101;-59
2021/12/23 12:54:32;;;;;;;49.97;23.83;;;1.50;99.90;;;;;;5013597;28;20336;-57
2021/12/23 12:57:00;;;;;;;58.38;24.83;;;1.50;99.90;;;;;;5013544;28;20037;-57
2021/12/23 12:59:29;;;;;;;53.40;25.20;;;1.50;99.90;;;;;;5016026;28;20028;-58
2021/12/23 13:01:57;;;;;;;50.67;25.35;;;1.50;99.90;;;;;;5013522;28;20033;-58
2021/12/23 13:04:26;;;;;;;48.75;24.85;;;1.50;99.90;;;;;;5012931;28;20034;-60
2021/12/23 13:06:54;;;;;;;55.42;27.13;;;1.50;99.90;;;;;;5013349;28;20034;-60
2021/12/23 13:09:28;;;;;;;56.70;27.23;;;1.50;99.90;;;;;;5013931;28;20025;-57
2021/12/23 13:11:58;;;;;;;56.45;27.23;;;1.40;99.90;;;;;;4992888;28;20377;-52
2021/12/23 13:15:08;;;;;;;54.13;27.02;;;1.30;99.90;;;;;;5002075;28;20073;-61
2021/12/23 13:17:55;;;;;;;59.35;27.52;;;1.20;99.90;;;;;;5013143;28;20026;-57
2021/12/23 13:20:34;;;;;;;56.47;27.00;;;1.20;99.90;;;;;;5012675;28;20133;-60
2021/12/23 13:23:06;;;;;;;60.42;28.65;;;1.20;99.90;;;;;;5011139;28;20128;-56
2021/12/23 13:25:32;;;;;;;;;;;1.10;99.90;;;;;;5014193;28;20357;-55
2021/12/23 13:28:00;;;;;;;58.90;27.15;;;1.10;99.90;;;;;;5013050;28;19920;-57
2021/12/23 13:30:26;;;;;;;60.35;29.73;;;1.10;99.90;;;;;;5011709;28;20060;-58
2021/12/23 13:32:59;;;;;;;64.90;30.80;;;1.00;99.90;;;;;;5012578;28;20356;-58
2021/12/23 13:35:25;;;;;;;63.53;29.85;;;1.00;99.90;;;;;;5011791;28;20042;-54
2021/12/23 13:37:51;;;;;;;60.83;31.00;;;0.90;99.90;;;;;;4995039;28;20113;-58
2021/12/23 13:40:32;;;;;;;66.97;32.88;;;0.90;99.90;;;;;;5011392;28;20068;-61
2021/12/23 13:42:58;;;;;;;63.90;29.95;;;0.90;99.90;;;;;;5009700;28;20515;-57
2021/12/23 13:45:25;;;;;;;66.72;32.95;;;1.00;99.90;;;;;;5005992;28;20022;-60